Archival Weather

Los Angeles Intl

Los Angeles, California (KLAX)

Report from: Thursday, September 21, 2023 5:53 AM PDT
Current time: Saturday, March 2, 2024 1:41 AM PST

Current weather – Weather history – Daily summaries
Weather forecast

Temperature17.8°C (64.0°F)
Dew point15.6°C (60.1°F)
Winds 5 kts (2.6 m/s, 5.8 mph) Southeast (140°)
Visibility10 mi. (16.1 km)
Clouds Few clouds 1,000 ft. (305 m)
Few clouds 2,000 ft. (610 m)
Ceiling: Broken clouds 4,400 ft. (1,341 m)
Altimeter29.90 in.Hg (1013 mB)
Relative humidity87 %
Density altitude609 ft. (186 m)
Sea-level pressure101.2 kPa (1012 mB, 29.89 in.Hg)
Remarks Automated weather observing station with precipitation discriminator
Flight conditions Visual Meteorological Conditions
Raw dataKLAX 211253Z 14005KT 10SM FEW010 FEW020 BKN044 18/16 A2990 RMK AO2 SLP122 T01780156
An error has occurred. This application may no longer respond until reloaded. Reload 🗙